Nicholasville, KY (40340)

07:16 AM EST del 08 Febbraio 2016 (GMT -0500)
Miles Estates | | Change Station
CLOSE
Current Station
Stazione meteo personale
Location: Nicholasville, KY
Altitudine: 919 ft
Stazioni meteo nelle vicinanze
Avvisi attivi: Winter Weather Advisory

Alt. 919 ft 37.87 °N, 84.57 °W | Updated 8 seconds ago

Pioggia
Pioggia
34.5 °F
Sembra 34 °F
N
2.7
Vento Variabile Vento da SO
Gusts 4.9 mph

Oggi
Massima -- | Minima -- °F
--% Possibilità di precip.
Ieri
Massima -- | Minima -- °F
Precip. -- in
Pressione 29.73 in
Visibilità 6.0 miglia
Nuvole Coperto 600 ft
Raffreddamento del vento 34 °F
Punto di rugiada 31 °F
Umidità 88%
Piovosità 0.17 in
Spessore del manto nevoso Non disponibile.
7:36 AM 6:09 PM
Luna calante, 0% visible
METAR KLEX 081154Z 24006KT 6SM -SN BR OVC006 02/01 A2971 RMK AO2 RAE52SNB52 SLP065 P0004 60011 70011 T00170006 10061 20017 56005 $
Pressione 29.73 in
Visibilità 6.0 miglia
Nuvole Coperto 600 ft
Raffreddamento del vento 34 °F
Punto di rugiada 31 °F
Umidità 88%
Piovosità 0.17 in
Spessore del manto nevoso Non disponibile.
7:36 AM 6:09 PM
Luna calante, 0% visible
METAR KLEX 081154Z 24006KT 6SM -SN BR OVC006 02/01 A2971 RMK AO2 RAE52SNB52 SLP065 P0004 60011 70011 T00170006 10061 20017 56005 $

10-Day Weather Forecast

Almanac

Astronomia

Feb. 08, 2016 Alba Tramonto
Ora attuale
Crepuscolo civile
Crepuscolo nautico
Crepuscolo astronomico
Luna
Estensione della luce visibile
Lunghezza del giorno
Tomorrow will be .
, % of the Moon is Illuminated

Gli estremi di oggi

State Highs State Lows

Community

WunderPhotos

Upload Photos

1,891,420 foto caricate!

WunderBlog® & News

Nearby

Qualità dell'aria

  Qualità dell'aria Indice AQ Inquinante
Not available.

Profondità neve

Stazione Profondità Altitudine

Attività sismica

Città  Distanza Mag. Data & Ora
Minimo Magnitudo Mostrato è 2.5.

Temperature delle acque costiere

Località Temperatura

Stations

Stazioni meteo nelle vicinanze

Ubicazione della stazione Temp. Raffreddamento del vento Punto di rugiada Umidità Vento Precip. Alt. Aggiornato Tipo
                   

Watches & Warnings

Winter Weather Advisory
Issued: 02:34 CST Feb. 8, 2016 – National Weather Service

... Winter Weather Advisory remains in effect from 5 PM EST /4 PM
CST/ this afternoon to 6 PM EST /5 PM CST/ Tuesday...

* timing... this evening through at least Tuesday evening.

* Main impact... periods of moderate to briefly heavy snow showers
will impact travel at times. Roads may become slick and snow
covered... especially secondary and untreated surfaces.

* Other impacts... gusty winds along with moderate snow showers may
reduce visibility at times.

Precautionary/preparedness actions...

Research shows that more traffic accidents occur with an inch or
less of snow... before drivers realize that traction is reduced.
Don't become a statistic... slow down and leave extra distance
between vehicles.



Ams